createdAt,value
2023-05-25T00:01:11.043Z,36.2
2023-05-25T00:03:16.896Z,9.9
2023-05-25T00:09:34.284Z,11.2
2023-05-25T00:11:40.086Z,5.3
2023-05-25T00:18:00.676Z,10.3
2023-05-25T00:20:06.495Z,11.7
2023-05-25T00:22:12.284Z,10.2
2023-05-25T00:24:18.092Z,13.7
2023-05-25T00:26:23.889Z,9.8
2023-05-25T00:28:29.685Z,5.7
2023-05-25T00:30:38.741Z,6.9
2023-05-25T00:32:44.455Z,9.5
2023-05-25T00:34:50.245Z,8.2
2023-05-25T00:35:54.674Z,12.7
2023-05-25T00:38:00.482Z,9.7
2023-05-25T00:40:06.251Z,14
2023-05-25T00:50:38.558Z,10.3
2023-05-25T01:07:28.073Z,10.6
2023-05-25T01:11:39.712Z,9.6
2023-05-25T01:18:00.285Z,11.5
2023-05-25T01:22:11.813Z,11.5
2023-05-25T01:26:23.432Z,16.5
2023-05-25T01:28:32.285Z,15.3
2023-05-25T01:30:38.097Z,13.6
2023-05-25T01:32:43.923Z,11.4
2023-05-25T01:35:15.449Z,14.3
2023-05-25T01:43:41.724Z,14.9
2023-05-25T01:52:04.919Z,12.5
2023-05-25T01:54:10.695Z,18.9
2023-05-25T01:56:19.560Z,9.5
2023-05-25T01:58:25.361Z,9.6
2023-05-25T02:02:36.964Z,12.6
2023-05-25T02:08:54.351Z,17.7
2023-05-25T02:11:03.199Z,13.8
2023-05-25T02:13:08.994Z,31.4
2023-05-25T02:23:37.956Z,20
2023-05-25T02:25:46.846Z,13.2
2023-05-25T02:27:52.668Z,8.9
2023-05-25T02:29:58.374Z,9
2023-05-25T02:33:10.211Z,14.2
2023-05-25T02:35:15.951Z,17.4
2023-05-25T02:37:21.731Z,9.5
2023-05-25T02:39:30.592Z,9.4
2023-05-25T02:43:42.120Z,15.6
2023-05-25T02:45:47.904Z,14.1
2023-05-25T02:52:05.248Z,23
2023-05-25T02:54:14.117Z,7.9
2023-05-25T02:56:19.899Z,9.4
2023-05-25T02:58:25.669Z,8.4
2023-05-25T03:08:57.667Z,13.8
2023-05-25T03:23:41.189Z,16.5
2023-05-25T03:28:57.179Z,27.6
2023-05-25T03:31:02.948Z,11.7
2023-05-25T03:33:08.773Z,11.9
2023-05-25T03:35:14.518Z,18.1
2023-05-25T03:37:23.362Z,15
2023-05-25T03:39:29.153Z,23.7
2023-05-25T03:41:34.939Z,26.9
2023-05-25T03:43:40.720Z,11.8
2023-05-25T03:45:46.623Z,18.6
2023-05-25T03:47:52.288Z,19
2023-05-25T03:52:06.885Z,15.3
2023-05-25T03:54:12.671Z,20.1
2023-05-25T03:56:18.472Z,14.5
2023-05-25T04:13:07.713Z,24
2023-05-25T04:17:19.284Z,16
2023-05-25T04:19:25.064Z,15.8
2023-05-25T04:21:33.873Z,21.2
2023-05-25T04:23:39.661Z,25.8
2023-05-25T04:25:45.600Z,31.8
2023-05-25T04:35:16.062Z,23
2023-05-25T04:41:33.426Z,22.6
2023-05-25T04:45:45.232Z,20.6
2023-05-25T04:52:05.420Z,24
2023-05-25T04:58:22.794Z,20.9
2023-05-25T05:00:28.596Z,44
2023-05-25T05:02:34.474Z,34.3
2023-05-25T05:06:49.051Z,22.1
2023-05-25T05:08:54.844Z,37.1
2023-05-25T05:19:26.924Z,25.7
2023-05-25T05:23:38.525Z,31.1
2023-05-25T05:26:10.123Z,17.6
2023-05-25T05:28:15.942Z,21.8
2023-05-25T05:30:21.784Z,20.4
2023-05-25T05:32:30.752Z,21.6
2023-05-25T05:34:36.495Z,27.1
2023-05-25T05:36:56.654Z,14.8
2023-05-25T05:38:48.104Z,12.8
2023-05-25T05:40:53.930Z,19.8
2023-05-25T05:53:31.906Z,32.3
2023-05-25T05:55:37.748Z,36.1
2023-05-25T05:57:43.519Z,15.6
2023-05-25T05:59:49.344Z,23.6
2023-05-25T06:01:58.186Z,20.7
2023-05-25T06:04:03.885Z,19.9
2023-05-25T06:06:09.801Z,21.7
2023-05-25T06:08:15.495Z,18.3
2023-05-25T06:10:21.232Z,12
2023-05-25T06:12:26.979Z,25.6
2023-05-25T06:14:32.736Z,24.3
2023-05-25T06:16:41.526Z,21.3
2023-05-25T06:18:47.235Z,10
2023-05-25T06:20:52.998Z,15.6
2023-05-25T06:21:57.348Z,20.1
2023-05-25T06:24:03.128Z,40.9
2023-05-25T06:26:08.885Z,17.1
2023-05-25T06:28:14.641Z,23.6
2023-05-25T06:30:23.379Z,15
2023-05-25T06:32:29.195Z,22.1
2023-05-25T06:34:37.326Z,29.2
2023-05-25T06:36:41.779Z,17.9
2023-05-25T06:42:57.987Z,8.6
2023-05-25T06:59:50.137Z,12.8
2023-05-25T07:01:56.020Z,16.3
2023-05-25T07:04:01.698Z,25.2
2023-05-25T07:06:07.477Z,25.9
2023-05-25T07:08:13.291Z,22.5
2023-05-25T07:10:19.053Z,9.1
2023-05-25T07:12:24.823Z,21
2023-05-25T07:14:33.577Z,28.8
2023-05-25T07:16:39.552Z,12.3
2023-05-25T07:18:45.146Z,20.5
2023-05-25T07:19:49.517Z,17.3
2023-05-25T07:21:55.322Z,18.8
2023-05-25T07:26:06.924Z,21.3
2023-05-25T07:28:15.671Z,18.2
2023-05-25T07:30:21.418Z,22.6
2023-05-25T07:32:27.239Z,16.4
2023-05-25T07:36:38.756Z,17.4
2023-05-25T07:38:44.541Z,18.4
2023-05-25T07:45:04.820Z,41.1
2023-05-25T07:49:16.459Z,20.7
2023-05-25T07:53:28.018Z,12.2
2023-05-25T07:57:42.509Z,9.8
2023-05-25T07:59:48.311Z,22.6
2023-05-25T08:01:54.120Z,23.9
2023-05-25T08:04:00.116Z,18.4
2023-05-25T08:06:05.684Z,16.7
2023-05-25T08:08:11.477Z,19.6
2023-05-25T08:10:17.274Z,13.9
2023-05-25T08:14:31.792Z,11.6
2023-05-25T08:16:37.637Z,8.3
2023-05-25T08:17:42.057Z,9.7
2023-05-25T08:26:20.323Z,11.2
2023-05-25T08:28:13.837Z,15
2023-05-25T08:32:25.403Z,7
2023-05-25T08:34:31.099Z,15.3
2023-05-25T08:36:38.469Z,10.9
2023-05-25T08:38:44.175Z,15.5
2023-05-25T08:53:27.271Z,9.7
2023-05-25T08:55:35.981Z,9.2
2023-05-25T08:57:41.695Z,9.4
2023-05-25T08:59:47.402Z,4.7
2023-05-25T09:01:53.173Z,6.9
2023-05-25T09:03:58.935Z,6.8
2023-05-25T09:06:04.585Z,9.5
2023-05-25T09:08:10.325Z,13.4
2023-05-25T09:14:30.474Z,6.8
2023-05-25T09:17:01.700Z,11
2023-05-25T09:19:07.455Z,5.4
2023-05-25T09:21:13.116Z,3.1
2023-05-25T09:23:21.842Z,3.8
2023-05-25T09:25:27.615Z,6.6
2023-05-25T09:27:33.383Z,11.6
2023-05-25T09:29:39.110Z,4.8
2023-05-25T09:31:44.921Z,6.9
2023-05-25T09:33:50.600Z,10
2023-05-25T09:35:56.324Z,9.2
2023-05-25T09:38:05.263Z,12.9
2023-05-25T09:46:28.048Z,5.3
2023-05-25T09:48:33.752Z,6.2
2023-05-25T09:50:39.466Z,8.9
2023-05-25T10:03:17.439Z,7.1
2023-05-25T10:05:23.191Z,3.5
2023-05-25T10:07:31.928Z,6.6
2023-05-25T10:11:43.397Z,3.9
2023-05-25T10:12:47.773Z,5.4
2023-05-25T10:14:53.548Z,3.8
2023-05-25T10:16:59.309Z,7.3
2023-05-25T10:19:05.050Z,8
2023-05-25T10:21:13.769Z,4.5
2023-05-25T10:23:19.539Z,8.4
2023-05-25T10:25:25.306Z,12.2
2023-05-25T10:27:31.085Z,7
2023-05-25T10:29:36.832Z,2.6
2023-05-25T10:33:51.991Z,5.8
2023-05-25T10:38:02.953Z,9.7
2023-05-25T10:40:08.731Z,3.8
2023-05-25T10:42:14.493Z,12.8
2023-05-25T10:44:20.274Z,13.7
2023-05-25T10:46:26.065Z,9
2023-05-25T10:48:31.802Z,3.8
2023-05-25T10:50:40.578Z,7.6
2023-05-25T10:52:46.340Z,6.5
2023-05-25T10:54:52.122Z,5.6
2023-05-25T10:56:57.916Z,6.2
2023-05-25T10:59:03.694Z,11.9
2023-05-25T11:01:09.557Z,13.6
2023-05-25T11:05:24.000Z,8.3
2023-05-25T11:07:29.730Z,7.5
2023-05-25T11:09:35.542Z,5
2023-05-25T11:10:39.956Z,6.8
2023-05-25T11:14:51.544Z,6.1
2023-05-25T11:16:57.326Z,7
2023-05-25T11:19:06.080Z,7.9
2023-05-25T11:21:11.823Z,7.4
2023-05-25T11:23:17.614Z,4.9
2023-05-25T11:25:23.413Z,13.6
2023-05-25T11:27:29.144Z,4.4
2023-05-25T11:29:34.957Z,4.3
2023-05-25T11:31:43.378Z,9.5
2023-05-25T11:38:01.050Z,25.5
2023-05-25T11:40:06.840Z,12.4
2023-05-25T11:48:32.937Z,10.5
2023-05-25T11:50:38.713Z,10.3
2023-05-25T11:52:44.485Z,11.7
2023-05-25T11:54:50.259Z,13.7
2023-05-25T11:56:56.041Z,17.4
2023-05-25T12:01:07.594Z,10.1
2023-05-25T12:03:16.427Z,7.2
2023-05-25T12:05:22.178Z,9.7
2023-05-25T12:08:32.274Z,6.4
2023-05-25T12:10:38.054Z,12.8
2023-05-25T12:12:43.843Z,7.5
2023-05-25T12:19:04.242Z,4.7
2023-05-25T12:23:15.763Z,17.1
2023-05-25T12:25:21.675Z,11.1
2023-05-25T12:27:27.342Z,9.5
2023-05-25T12:29:33.124Z,8.5
2023-05-25T12:31:41.894Z,15.2
2023-05-25T12:33:47.684Z,11.1
2023-05-25T12:35:53.447Z,6.7
2023-05-25T12:37:59.222Z,15
2023-05-25T12:42:10.808Z,13.3
2023-05-25T12:46:25.431Z,5.9
2023-05-25T12:48:31.146Z,16.4
2023-05-25T12:50:37.417Z,10.6
2023-05-25T12:52:42.690Z,8.8
2023-05-25T12:54:48.451Z,6.5
2023-05-25T12:56:54.277Z,23.3
2023-05-25T12:59:00.086Z,7.5
2023-05-25T13:01:08.873Z,27.8
2023-05-25T13:03:14.627Z,12
2023-05-25T13:07:51.675Z,6
2023-05-25T13:09:57.498Z,17.2
2023-05-25T13:12:03.234Z,18.3
2023-05-25T13:14:11.975Z,23.3
2023-05-25T13:18:23.530Z,11.4
2023-05-25T13:20:29.477Z,22.4
2023-05-25T13:22:35.117Z,20.3
2023-05-25T13:24:40.898Z,11.7
2023-05-25T13:28:55.426Z,13.5
2023-05-25T13:31:01.209Z,16.8
2023-05-25T13:33:07.062Z,22.7
2023-05-25T13:35:12.811Z,16
2023-05-25T13:45:44.995Z,30
2023-05-25T13:47:50.766Z,11.2
2023-05-25T13:52:02.093Z,15
2023-05-25T13:54:07.875Z,17.2
2023-05-25T13:56:13.635Z,12.2
2023-05-25T13:58:22.389Z,16.5
2023-05-25T14:00:28.172Z,9.5
2023-05-25T14:03:38.466Z,30.8
2023-05-25T14:05:44.346Z,16
2023-05-25T14:20:27.634Z,10.6
2023-05-25T14:35:11.129Z,23.7
2023-05-25T14:39:24.302Z,12.9
2023-05-25T14:41:32.990Z,27.2
2023-05-25T14:43:38.777Z,21.2
2023-05-25T14:45:44.764Z,22.6
2023-05-25T14:47:51.999Z,23.5
2023-05-25T14:49:56.138Z,18.3
2023-05-25T14:52:01.966Z,23
2023-05-25T14:54:07.855Z,15.3
2023-05-25T14:58:22.291Z,18
2023-05-25T15:01:32.482Z,27.4
2023-05-25T15:03:38.347Z,23.3
2023-05-25T15:07:49.785Z,27.6
2023-05-25T15:22:33.274Z,6.5
2023-05-25T15:24:42.021Z,26.7
2023-05-25T15:26:47.837Z,23.3
2023-05-25T15:31:00.850Z,17.2
2023-05-25T15:33:05.280Z,11.2
2023-05-25T15:35:11.007Z,14
2023-05-25T15:37:16.816Z,27.8
2023-05-25T15:39:25.576Z,8.1
2023-05-25T15:41:31.369Z,12.9
2023-05-25T15:43:37.126Z,21
2023-05-25T15:52:00.324Z,13.9
2023-05-25T15:54:10.466Z,16.6
2023-05-25T15:56:14.869Z,26.6
2023-05-25T15:58:20.671Z,22
2023-05-25T15:59:25.035Z,24.2
2023-05-25T16:01:30.929Z,30.7
2023-05-25T16:05:42.557Z,18.1
2023-05-25T16:07:51.228Z,18.6
2023-05-25T16:12:02.776Z,22.7
2023-05-25T16:14:08.565Z,16.5
2023-05-25T16:18:20.199Z,17
2023-05-25T16:20:26.004Z,27.6
2023-05-25T16:22:34.734Z,16.1
2023-05-25T16:24:40.524Z,43.3
2023-05-25T16:26:46.326Z,19.9
2023-05-25T16:28:52.142Z,12.6
2023-05-25T16:37:18.284Z,12.4
2023-05-25T16:47:47.265Z,38.3
2023-05-25T16:49:53.011Z,21.9
2023-05-25T16:52:01.783Z,25.6
2023-05-25T16:54:07.563Z,19.3
2023-05-25T16:56:13.335Z,21.6
2023-05-25T16:58:44.606Z,31.3
2023-05-25T17:00:50.417Z,14.7
2023-05-25T17:02:56.322Z,21.2
2023-05-25T17:05:04.993Z,21.7
2023-05-25T17:07:10.792Z,22.3
2023-05-25T17:09:16.562Z,31.2
2023-05-25T17:11:22.365Z,30.5
2023-05-25T17:13:28.180Z,23.1
2023-05-25T17:15:33.971Z,20.7
2023-05-25T17:17:39.840Z,19.9
2023-05-25T17:21:54.336Z,28.6
2023-05-25T17:24:00.157Z,20.4
2023-05-25T17:26:05.952Z,37.2
2023-05-25T17:28:11.720Z,21.6
2023-05-25T17:30:17.504Z,24.9
2023-05-25T17:34:32.049Z,19.3
2023-05-25T17:36:37.894Z,27.7
2023-05-25T17:38:43.728Z,33
2023-05-25T17:40:50.326Z,26.2
2023-05-25T17:45:01.027Z,27.2
2023-05-25T17:47:08.317Z,28.9
2023-05-25T17:53:27.159Z,27.1
2023-05-25T17:54:31.551Z,45.4
2023-05-25T17:58:43.109Z,30.2
2023-05-25T18:00:49.069Z,26.8
2023-05-25T18:02:57.729Z,19.1
2023-05-25T18:07:09.273Z,27.4
2023-05-25T18:09:15.046Z,55.4
2023-05-25T18:30:15.983Z,28.8
2023-05-25T18:32:24.787Z,36.1
2023-05-25T18:34:30.558Z,40.9
2023-05-25T18:36:36.366Z,28
2023-05-25T18:38:42.151Z,39.5
2023-05-25T18:40:47.942Z,24.3
2023-05-25T18:42:53.743Z,31.3
2023-05-25T18:44:59.534Z,29.8
2023-05-25T18:47:08.298Z,36.1
2023-05-25T18:49:14.093Z,33
2023-05-25T18:51:19.846Z,21.7
2023-05-25T18:52:24.244Z,26.3
2023-05-25T18:56:35.824Z,19.5
2023-05-25T19:00:50.404Z,23.7
2023-05-25T19:02:56.258Z,22.5
2023-05-25T19:05:01.981Z,26.3
2023-05-25T19:09:13.609Z,18.4
2023-05-25T19:11:19.314Z,22.7
2023-05-25T19:13:25.120Z,37.4
2023-05-25T19:15:33.913Z,38.2
2023-05-25T19:17:39.711Z,21.3
2023-05-25T19:19:45.490Z,35.6
2023-05-25T19:26:02.864Z,19.7
2023-05-25T19:28:08.659Z,11.6
2023-05-25T19:30:17.430Z,22.8
2023-05-25T19:32:23.238Z,26.7
2023-05-25T19:34:28.971Z,29.1
2023-05-25T19:36:34.743Z,25.8
2023-05-25T19:40:46.363Z,24.6
2023-05-25T19:47:06.745Z,22.4
2023-05-25T19:49:12.444Z,46.6
2023-05-25T19:50:16.848Z,26.7
2023-05-25T20:00:48.721Z,27.4
2023-05-25T20:02:54.699Z,24.9
2023-05-25T20:05:00.326Z,32.2
2023-05-25T20:07:06.161Z,24.9
2023-05-25T20:09:11.850Z,26.9
2023-05-25T20:11:17.640Z,34.6
2023-05-25T20:13:26.410Z,23.8
2023-05-25T20:17:37.961Z,20.3
2023-05-25T20:19:43.750Z,29.8
2023-05-25T20:26:01.105Z,30.4
2023-05-25T20:28:09.839Z,21.9
2023-05-25T20:30:15.825Z,34.3
2023-05-25T20:32:21.480Z,22.3
2023-05-25T20:34:27.202Z,41.5
2023-05-25T20:36:32.960Z,26.1
2023-05-25T20:38:38.730Z,37.6
2023-05-25T20:40:44.492Z,37
2023-05-25T20:45:00.625Z,55.5
2023-05-25T20:47:06.379Z,21.6
2023-05-25T20:49:37.744Z,31.1
2023-05-25T20:51:43.528Z,35
2023-05-25T20:53:49.279Z,31.7
2023-05-25T21:04:21.091Z,46.1
2023-05-25T21:06:26.874Z,23.7
2023-05-25T21:08:32.650Z,32.5
2023-05-25T21:10:41.397Z,30.1
2023-05-25T21:12:47.148Z,25
2023-05-25T21:21:10.219Z,35.4
2023-05-25T21:23:16.072Z,22.7
2023-05-25T21:31:42.293Z,45
2023-05-25T21:35:53.888Z,26.6
2023-05-25T21:37:59.660Z,23
2023-05-25T21:40:08.501Z,28.1
2023-05-25T21:42:14.236Z,41.6
2023-05-25T21:45:24.580Z,28.7
2023-05-25T21:49:36.269Z,36.7
2023-05-25T21:51:42.111Z,17.6
2023-05-25T21:55:56.912Z,26.2
2023-05-25T21:58:02.681Z,27
2023-05-25T22:02:14.423Z,28.9
2023-05-25T22:06:26.056Z,27.1
2023-05-25T22:08:34.982Z,65.8
2023-05-25T22:10:40.888Z,40
2023-05-25T22:12:46.708Z,36.4
2023-05-25T22:14:52.571Z,47.6
2023-05-25T22:16:58.480Z,46
2023-05-25T22:19:04.241Z,29.3
2023-05-25T22:21:10.087Z,35.4
2023-05-25T22:23:19.040Z,38.7
2023-05-25T22:33:48.202Z,35.4
2023-05-25T22:35:54.055Z,32.2
2023-05-25T22:38:02.968Z,32.8
2023-05-25T22:42:14.640Z,46.7
2023-05-25T22:45:24.918Z,33.9
2023-05-25T22:47:30.801Z,52.3
2023-05-25T22:49:37.704Z,22.8
2023-05-25T22:51:45.489Z,16.5
2023-05-25T22:53:51.342Z,40
2023-05-25T22:55:57.183Z,31.3
2023-05-25T23:02:14.697Z,18.7
2023-05-25T23:04:20.567Z,33.4
2023-05-25T23:08:35.195Z,24
2023-05-25T23:10:41.018Z,43.3
2023-05-25T23:12:46.871Z,30.7
2023-05-25T23:16:58.490Z,51.3
2023-05-25T23:19:04.290Z,31.8
2023-05-25T23:21:13.183Z,29.6
2023-05-25T23:25:24.825Z,38.6
2023-05-25T23:27:30.638Z,35.8
2023-05-25T23:29:36.458Z,33.5
2023-05-25T23:31:42.341Z,30.7
2023-05-25T23:33:48.113Z,35.8
2023-05-25T23:41:13.082Z,27.9
2023-05-25T23:43:18.905Z,40.6
2023-05-25T23:45:24.731Z,26.8
2023-05-25T23:47:30.607Z,56.2
2023-05-25T23:53:51.077Z,26
2023-05-25T23:58:02.710Z,33.2
